Back to Top

Language: 

My Weather Underground Personal Weather Station Historical Data with Graphs...

Delerius Weather Station Historical Data
Daily Summary for April 17, 2017 Units:  Both    English   Metric
« Previous Day
Next Day »
Daily Weekly Monthly Yearly Custom
  High: Low: Average:
Temperature: 54.0 °F /  12.2 °C 41.4 °F /  5.2 °C 45.9 °F /  7.7 °C
Dew Point: 41.6 °F /  5.3 °C 34.9 °F /  1.6 °C 38.6 °F /  3.7 °C
Humidity: 96 % 49 % 77 %
Wind Speed: 11.0 mph /  17.7 km/h - 2.6 mph /  4.2 km/h
Wind Gust: 22.0 mph /  35.4 km/h - -
Wind:- - SSE
Pressure: 30.36 in /  1028 hPa 30.12 in /  1019.9 hPa -
Precipitation: 0.02 in /  0.51 mm    
Historical Graphs
 
 
Tabular Data for April 17, 2017
Time Temperature Dew Point Pressure Wind Wind Speed Wind Gust Humidity Rainfall Rate (Hourly) solar Conditions
00:04 43.0 °F /  6.1 °C 41.6 °F /  5.3 °C 30.12 in /  1019.9 hPa NE 3.0 mph /  4.8 km/h 8.0 mph /  12.9 km/h 95 % 0.01 in /  0.25 mm 0 W/m2
00:09 43.0 °F /  6.1 °C 41.6 °F /  5.3 °C 30.12 in /  1019.9 hPa NE 4.0 mph /  6.4 km/h 10.0 mph /  16.1 km/h 95 % 0.02 in /  0.51 mm 0 W/m2
00:10 43.0 °F /  6.1 °C 41.6 °F /  5.3 °C 30.12 in /  1019.9 hPa NE 4.0 mph /  6.4 km/h 10.0 mph /  16.1 km/h 95 % 0.02 in /  0.51 mm 0 W/m2
00:15 42.8 °F /  6 °C 41.5 °F /  5.3 °C 30.13 in /  1020.2 hPa NE 4.0 mph /  6.4 km/h 10.0 mph /  16.1 km/h 95 % 0.02 in /  0.51 mm 0 W/m2
00:20 42.6 °F /  5.9 °C 41.3 °F /  5.2 °C 30.13 in /  1020.2 hPa NE 4.0 mph /  6.4 km/h 9.0 mph /  14.5 km/h 95 % 0.02 in /  0.51 mm 0 W/m2
00:25 42.4 °F /  5.8 °C 41.1 °F /  5.1 °C 30.13 in /  1020.2 hPa ENE 3.0 mph /  4.8 km/h 9.0 mph /  14.5 km/h 95 % 0.02 in /  0.51 mm 0 W/m2
00:30 42.4 °F /  5.8 °C 41.1 °F /  5.1 °C 30.13 in /  1020.2 hPa NE 3.0 mph /  4.8 km/h 8.0 mph /  12.9 km/h 95 % 0.02 in /  0.51 mm 0 W/m2
00:35 42.4 °F /  5.8 °C 41.1 °F /  5.1 °C 30.13 in /  1020.2 hPa NE 2.0 mph /  3.2 km/h 8.0 mph /  12.9 km/h 95 % 0.01 in /  0.25 mm 0 W/m2
00:40 42.4 °F /  5.8 °C 41.1 °F /  5.1 °C 30.13 in /  1020.2 hPa NE 2.0 mph /  3.2 km/h 6.0 mph /  9.7 km/h 95 % 0.02 in /  0.51 mm 0 W/m2
00:45 42.4 °F /  5.8 °C 41.1 °F /  5.1 °C 30.13 in /  1020.2 hPa NE 3.0 mph /  4.8 km/h 10.0 mph /  16.1 km/h 95 % 0.02 in /  0.51 mm 0 W/m2
00:50 42.3 °F /  5.7 °C 40.9 °F /  4.9 °C 30.13 in /  1020.2 hPa NE 4.0 mph /  6.4 km/h 10.0 mph /  16.1 km/h 95 % 0.02 in /  0.51 mm 0 W/m2
00:56 42.3 °F /  5.7 °C 40.9 °F /  4.9 °C 30.14 in /  1020.5 hPa NE 4.0 mph /  6.4 km/h 10.0 mph /  16.1 km/h 95 % 0.02 in /  0.51 mm 0 W/m2
01:01 42.1 °F /  5.6 °C 40.8 °F /  4.9 °C 30.14 in /  1020.5 hPa NE 5.0 mph /  8 km/h 10.0 mph /  16.1 km/h 95 % 0.02 in /  0.51 mm 0 W/m2
01:06 41.9 °F /  5.5 °C 40.6 °F /  4.8 °C 30.14 in /  1020.5 hPa NE 5.0 mph /  8 km/h 10.0 mph /  16.1 km/h 95 % 0.02 in /  0.51 mm 0 W/m2
01:11 41.9 °F /  5.5 °C 40.6 °F /  4.8 °C 30.14 in /  1020.5 hPa NE 3.0 mph /  4.8 km/h 9.0 mph /  14.5 km/h 95 % 0.01 in /  0.25 mm 0 W/m2
01:16 41.7 °F /  5.4 °C 40.4 °F /  4.7 °C 30.14 in /  1020.5 hPa ENE 2.0 mph /  3.2 km/h 6.0 mph /  9.7 km/h 95 % 0.01 in /  0.25 mm 0 W/m2
01:21 41.7 °F /  5.4 °C 40.4 °F /  4.7 °C 30.14 in /  1020.5 hPa ENE 2.0 mph /  3.2 km/h 6.0 mph /  9.7 km/h 95 % 0.01 in /  0.25 mm 0 W/m2
01:26 41.5 °F /  5.3 °C 40.2 °F /  4.6 °C 30.14 in /  1020.5 hPa NE 2.0 mph /  3.2 km/h 6.0 mph /  9.7 km/h 95 % 0.01 in /  0.25 mm 0 W/m2
01:31 41.5 °F /  5.3 °C 40.2 °F /  4.6 °C 30.14 in /  1020.5 hPa NNE 2.0 mph /  3.2 km/h 6.0 mph /  9.7 km/h 95 % 0.01 in /  0.25 mm 0 W/m2
01:36 41.5 °F /  5.3 °C 40.2 °F /  4.6 °C 30.14 in /  1020.5 hPa NE 3.0 mph /  4.8 km/h 7.0 mph /  11.3 km/h 95 % 0.01 in /  0.25 mm 0 W/m2
01:41 41.5 °F /  5.3 °C 40.2 °F /  4.6 °C 30.15 in /  1020.9 hPa NE 3.0 mph /  4.8 km/h 7.0 mph /  11.3 km/h 95 % 0.00 in /  0 mm 0 W/m2
01:46 41.5 °F /  5.3 °C 40.2 °F /  4.6 °C 30.15 in /  1020.9 hPa NE 2.0 mph /  3.2 km/h 5.0 mph /  8 km/h 95 % 0.00 in /  0 mm 0 W/m2
01:51 41.7 °F /  5.4 °C 40.7 °F /  4.8 °C 30.15 in /  1020.9 hPa NE 2.0 mph /  3.2 km/h 6.0 mph /  9.7 km/h 96 % 0.00 in /  0 mm 0 W/m2
01:56 41.7 °F /  5.4 °C 40.4 °F /  4.7 °C 30.14 in /  1020.5 hPa NNE 2.0 mph /  3.2 km/h 6.0 mph /  9.7 km/h 95 % 0.00 in /  0 mm 0 W/m2
02:01 41.7 °F /  5.4 °C 40.7 °F /  4.8 °C 30.15 in /  1020.9 hPa NNE 2.0 mph /  3.2 km/h 6.0 mph /  9.7 km/h 96 % 0.00 in /  0 mm 0 W/m2
02:06 41.9 °F /  5.5 °C 40.8 °F /  4.9 °C 30.14 in /  1020.5 hPa NNE 2.0 mph /  3.2 km/h 6.0 mph /  9.7 km/h 96 % 0.00 in /  0 mm 0 W/m2
02:11 42.1 °F /  5.6 °C 41.0 °F /  5 °C 30.14 in /  1020.5 hPa North 1.0 mph /  1.6 km/h 6.0 mph /  9.7 km/h 96 % 0.00 in /  0 mm 0 W/m2
02:16 41.9 °F /  5.5 °C 40.6 °F /  4.8 °C 30.14 in /  1020.5 hPa North 2.0 mph /  3.2 km/h 6.0 mph /  9.7 km/h 95 % 0.00 in /  0 mm 0 W/m2
02:21 41.7 °F /  5.4 °C 40.4 °F /  4.7 °C 30.15 in /  1020.9 hPa NNE 3.0 mph /  4.8 km/h 6.0 mph /  9.7 km/h 95 % 0.00 in /  0 mm 0 W/m2
02:26 41.9 °F /  5.5 °C 40.6 °F /  4.8 °C 30.14 in /  1020.5 hPa North 3.0 mph /  4.8 km/h 8.0 mph /  12.9 km/h 95 % 0.00 in /  0 mm 0 W/m2
02:31 41.9 °F /  5.5 °C 40.6 °F /  4.8 °C 30.15 in /  1020.9 hPa North 3.0 mph /  4.8 km/h 8.0 mph /  12.9 km/h 95 % 0.00 in /  0 mm 0 W/m2
02:36 41.9 °F /  5.5 °C 40.6 °F /  4.8 °C 30.15 in /  1020.9 hPa North 3.0 mph /  4.8 km/h 7.0 mph /  11.3 km/h 95 % 0.00 in /  0 mm 0 W/m2
02:37 41.9 °F /  5.5 °C 40.6 °F /  4.8 °C 30.15 in /  1020.9 hPa North 3.0 mph /  4.8 km/h 7.0 mph /  11.3 km/h 95 % 0.00 in /  0 mm 0 W/m2
02:42 41.9 °F /  5.5 °C 40.6 °F /  4.8 °C 30.15 in /  1020.9 hPa North 3.0 mph /  4.8 km/h 8.0 mph /  12.9 km/h 95 % 0.00 in /  0 mm 0 W/m2
02:47 41.7 °F /  5.4 °C 40.4 °F /  4.7 °C 30.15 in /  1020.9 hPa North 3.0 mph /  4.8 km/h 8.0 mph /  12.9 km/h 95 % 0.00 in /  0 mm 0 W/m2
02:52 41.7 °F /  5.4 °C 40.4 °F /  4.7 °C 30.15 in /  1020.9 hPa North 3.0 mph /  4.8 km/h 6.0 mph /  9.7 km/h 95 % 0.00 in /  0 mm 0 W/m2
02:57 41.7 °F /  5.4 °C 40.4 °F /  4.7 °C 30.15 in /  1020.9 hPa NNE 2.0 mph /  3.2 km/h 6.0 mph /  9.7 km/h 95 % 0.00 in /  0 mm 0 W/m2
03:02 41.7 °F /  5.4 °C 40.4 °F /  4.7 °C 30.15 in /  1020.9 hPa NNE 3.0 mph /  4.8 km/h 7.0 mph /  11.3 km/h 95 % 0.00 in /  0 mm 0 W/m2
03:07 41.5 °F /  5.3 °C 40.2 °F /  4.6 °C 30.15 in /  1020.9 hPa NNE 3.0 mph /  4.8 km/h 7.0 mph /  11.3 km/h 95 % 0.00 in /  0 mm 0 W/m2
03:12 41.5 °F /  5.3 °C 40.2 °F /  4.6 °C 30.15 in /  1020.9 hPa NNE 3.0 mph /  4.8 km/h 7.0 mph /  11.3 km/h 95 % 0.00 in /  0 mm 0 W/m2
03:17 41.5 °F /  5.3 °C 40.2 °F /  4.6 °C 30.15 in /  1020.9 hPa NNE 2.0 mph /  3.2 km/h 7.0 mph /  11.3 km/h 95 % 0.00 in /  0 mm 0 W/m2
03:22 41.5 °F /  5.3 °C 40.2 °F /  4.6 °C 30.15 in /  1020.9 hPa NNE 2.0 mph /  3.2 km/h 7.0 mph /  11.3 km/h 95 % 0.00 in /  0 mm 0 W/m2
03:27 41.5 °F /  5.3 °C 40.2 °F /  4.6 °C 30.16 in /  1021.2 hPa NNE 1.0 mph /  1.6 km/h 4.0 mph /  6.4 km/h 95 % 0.00 in /  0 mm 0 W/m2
03:32 41.5 °F /  5.3 °C 40.2 °F /  4.6 °C 30.16 in /  1021.2 hPa NE 1.0 mph /  1.6 km/h 6.0 mph /  9.7 km/h 95 % 0.00 in /  0 mm 0 W/m2
03:37 41.5 °F /  5.3 °C 40.2 °F /  4.6 °C 30.16 in /  1021.2 hPa NE 2.0 mph /  3.2 km/h 6.0 mph /  9.7 km/h 95 % 0.00 in /  0 mm 0 W/m2
03:42 41.5 °F /  5.3 °C 40.2 °F /  4.6 °C 30.16 in /  1021.2 hPa NNE 1.0 mph /  1.6 km/h 6.0 mph /  9.7 km/h 95 % 0.00 in /  0 mm 0 W/m2
03:47 41.5 °F /  5.3 °C 40.2 °F /  4.6 °C 30.16 in /  1021.2 hPa NNE 1.0 mph /  1.6 km/h 6.0 mph /  9.7 km/h 95 % 0.00 in /  0 mm 0 W/m2
03:52 41.5 °F /  5.3 °C 40.2 °F /  4.6 °C 30.16 in /  1021.2 hPa NNE 1.0 mph /  1.6 km/h 6.0 mph /  9.7 km/h 95 % 0.00 in /  0 mm 0 W/m2
03:57 41.5 °F /  5.3 °C 40.2 °F /  4.6 °C 30.15 in /  1020.9 hPa NNE 2.0 mph /  3.2 km/h 6.0 mph /  9.7 km/h 95 % 0.00 in /  0 mm 0 W/m2
04:02 41.5 °F /  5.3 °C 40.2 °F /  4.6 °C 30.15 in /  1020.9 hPa NNE 1.0 mph /  1.6 km/h 5.0 mph /  8 km/h 95 % 0.00 in /  0 mm 0 W/m2
04:07 41.5 °F /  5.3 °C 40.2 °F /  4.6 °C 30.16 in /  1021.2 hPa NNE 1.0 mph /  1.6 km/h 6.0 mph /  9.7 km/h 95 % 0.00 in /  0 mm 0 W/m2
04:12 41.5 °F /  5.3 °C 40.2 °F /  4.6 °C 30.16 in /  1021.2 hPa NNE 1.0 mph /  1.6 km/h 6.0 mph /  9.7 km/h 95 % 0.00 in /  0 mm 0 W/m2
04:17 41.5 °F /  5.3 °C 40.2 °F /  4.6 °C 30.15 in /  1020.9 hPa NNE 1.0 mph /  1.6 km/h 4.0 mph /  6.4 km/h 95 % 0.00 in /  0 mm 0 W/m2
04:22 41.5 °F /  5.3 °C 40.2 °F /  4.6 °C 30.16 in /  1021.2 hPa North 2.0 mph /  3.2 km/h 8.0 mph /  12.9 km/h 95 % 0.00 in /  0 mm 0 W/m2
04:27 41.5 °F /  5.3 °C 40.2 °F /  4.6 °C 30.16 in /  1021.2 hPa North 3.0 mph /  4.8 km/h 8.0 mph /  12.9 km/h 95 % 0.00 in /  0 mm 0 W/m2
04:32 41.5 °F /  5.3 °C 40.2 °F /  4.6 °C 30.16 in /  1021.2 hPa North 2.0 mph /  3.2 km/h 7.0 mph /  11.3 km/h 95 % 0.00 in /  0 mm 0 W/m2
04:37 41.5 °F /  5.3 °C 40.2 °F /  4.6 °C 30.16 in /  1021.2 hPa North 3.0 mph /  4.8 km/h 8.0 mph /  12.9 km/h 95 % 0.00 in /  0 mm 0 W/m2
04:42 41.5 °F /  5.3 °C 40.2 °F /  4.6 °C 30.16 in /  1021.2 hPa North 3.0 mph /  4.8 km/h 8.0 mph /  12.9 km/h 95 % 0.00 in /  0 mm 0 W/m2
04:47 41.5 °F /  5.3 °C 40.2 °F /  4.6 °C 30.16 in /  1021.2 hPa North 2.0 mph /  3.2 km/h 6.0 mph /  9.7 km/h 95 % 0.00 in /  0 mm 0 W/m2
04:52 41.5 °F /  5.3 °C 40.2 °F /  4.6 °C 30.16 in /  1021.2 hPa North 2.0 mph /  3.2 km/h 6.0 mph /  9.7 km/h 95 % 0.00 in /  0 mm 0 W/m2
04:57 41.5 °F /  5.3 °C 40.2 °F /  4.6 °C 30.16 in /  1021.2 hPa NNW 1.0 mph /  1.6 km/h 5.0 mph /  8 km/h 95 % 0.00 in /  0 mm 0 W/m2
05:02 41.5 °F /  5.3 °C 40.2 °F /  4.6 °C 30.16 in /  1021.2 hPa North 2.0 mph /  3.2 km/h 5.0 mph /  8 km/h 95 % 0.00 in /  0 mm 0 W/m2
05:07 41.5 °F /  5.3 °C 40.2 °F /  4.6 °C 30.16 in /  1021.2 hPa North 2.0 mph /  3.2 km/h 5.0 mph /  8 km/h 95 % 0.00 in /  0 mm 0 W/m2
05:12 41.5 °F /  5.3 °C 40.2 °F /  4.6 °C 30.16 in /  1021.2 hPa North 1.0 mph /  1.6 km/h 5.0 mph /  8 km/h 95 % 0.00 in /  0 mm 0 W/m2
05:17 41.5 °F /  5.3 °C 40.2 °F /  4.6 °C 30.16 in /  1021.2 hPa North 1.0 mph /  1.6 km/h 5.0 mph /  8 km/h 95 % 0.00 in /  0 mm 0 W/m2
05:22 41.5 °F /  5.3 °C 40.2 °F /  4.6 °C 30.17 in /  1021.6 hPa NNW 2.0 mph /  3.2 km/h 5.0 mph /  8 km/h 95 % 0.00 in /  0 mm 0 W/m2
05:27 41.5 °F /  5.3 °C 40.2 °F /  4.6 °C 30.17 in /  1021.6 hPa NNW 1.0 mph /  1.6 km/h 5.0 mph /  8 km/h 95 % 0.00 in /  0 mm 0 W/m2
05:32 41.5 °F /  5.3 °C 40.2 °F /  4.6 °C 30.17 in /  1021.6 hPa NNW 1.0 mph /  1.6 km/h 6.0 mph /  9.7 km/h 95 % 0.00 in /  0 mm 0 W/m2
05:37 41.4 °F /  5.2 °C 40.0 °F /  4.4 °C 30.17 in /  1021.6 hPa NNW 3.0 mph /  4.8 km/h 8.0 mph /  12.9 km/h 95 % 0.00 in /  0 mm 0 W/m2
05:42 41.4 °F /  5.2 °C 40.0 °F /  4.4 °C 30.17 in /  1021.6 hPa NNW 3.0 mph /  4.8 km/h 8.0 mph /  12.9 km/h 95 % 0.00 in /  0 mm 0 W/m2
05:47 41.4 °F /  5.2 °C 40.0 °F /  4.4 °C 30.17 in /  1021.6 hPa NNW 3.0 mph /  4.8 km/h 7.0 mph /  11.3 km/h 95 % 0.00 in /  0 mm 0 W/m2
05:52 41.4 °F /  5.2 °C 40.0 °F /  4.4 °C 30.17 in /  1021.6 hPa NNW 3.0 mph /  4.8 km/h 7.0 mph /  11.3 km/h 95 % 0.00 in /  0 mm 0 W/m2
05:57 41.4 °F /  5.2 °C 40.0 °F /  4.4 °C 30.18 in /  1021.9 hPa NNW 2.0 mph /  3.2 km/h 5.0 mph /  8 km/h 95 % 0.00 in /  0 mm 5 W/m2
06:02 41.4 °F /  5.2 °C 40.0 °F /  4.4 °C 30.18 in /  1021.9 hPa NNW 2.0 mph /  3.2 km/h 6.0 mph /  9.7 km/h 95 % 0.00 in /  0 mm 5 W/m2
06:07 41.4 °F /  5.2 °C 40.0 °F /  4.4 °C 30.18 in /  1021.9 hPa NNW 3.0 mph /  4.8 km/h 8.0 mph /  12.9 km/h 95 % 0.00 in /  0 mm 5 W/m2
06:12 41.4 °F /  5.2 °C 40.0 °F /  4.4 °C 30.18 in /  1021.9 hPa NNW 3.0 mph /  4.8 km/h 8.0 mph /  12.9 km/h 95 % 0.00 in /  0 mm 5 W/m2
06:17 41.4 °F /  5.2 °C 40.0 °F /  4.4 °C 30.18 in /  1021.9 hPa North 3.0 mph /  4.8 km/h 8.0 mph /  12.9 km/h 95 % 0.00 in /  0 mm 7 W/m2
06:22 41.4 °F /  5.2 °C 40.0 °F /  4.4 °C 30.18 in /  1021.9 hPa North 4.0 mph /  6.4 km/h 9.0 mph /  14.5 km/h 95 % 0.00 in /  0 mm 11 W/m2
06:30 41.5 °F /  5.3 °C 40.2 °F /  4.6 °C 30.18 in /  1021.9 hPa North 3.0 mph /  4.8 km/h 7.0 mph /  11.3 km/h 95 % 0.00 in /  0 mm 14 W/m2
06:35 41.5 °F /  5.3 °C 40.2 °F /  4.6 °C 30.19 in /  1022.2 hPa North 3.0 mph /  4.8 km/h 7.0 mph /  11.3 km/h 95 % 0.00 in /  0 mm 18 W/m2
06:40 41.5 °F /  5.3 °C 40.2 °F /  4.6 °C 30.19 in /  1022.2 hPa North 4.0 mph /  6.4 km/h 8.0 mph /  12.9 km/h 95 % 0.00 in /  0 mm 21 W/m2
06:45 41.5 °F /  5.3 °C 40.2 °F /  4.6 °C 30.19 in /  1022.2 hPa North 4.0 mph /  6.4 km/h 8.0 mph /  12.9 km/h 95 % 0.00 in /  0 mm 23 W/m2
06:50 41.5 °F /  5.3 °C 40.2 °F /  4.6 °C 30.19 in /  1022.2 hPa North 3.0 mph /  4.8 km/h 7.0 mph /  11.3 km/h 95 % 0.00 in /  0 mm 25 W/m2
06:55 41.5 °F /  5.3 °C 40.2 °F /  4.6 °C 30.19 in /  1022.2 hPa NNE 3.0 mph /  4.8 km/h 7.0 mph /  11.3 km/h 95 % 0.00 in /  0 mm 25 W/m2
07:00 41.5 °F /  5.3 °C 40.2 °F /  4.6 °C 30.19 in /  1022.2 hPa NNE 2.0 mph /  3.2 km/h 6.0 mph /  9.7 km/h 95 % 0.00 in /  0 mm 23 W/m2
07:05 41.5 °F /  5.3 °C 40.2 °F /  4.6 °C 30.20 in /  1022.6 hPa NNE 1.0 mph /  1.6 km/h 5.0 mph /  8 km/h 95 % 0.00 in /  0 mm 21 W/m2
07:10 41.5 °F /  5.3 °C 40.2 °F /  4.6 °C 30.20 in /  1022.6 hPa NNE 2.0 mph /  3.2 km/h 7.0 mph /  11.3 km/h 95 % 0.00 in /  0 mm 23 W/m2
07:15 41.5 °F /  5.3 °C 40.2 °F /  4.6 °C 30.20 in /  1022.6 hPa NNE 3.0 mph /  4.8 km/h 7.0 mph /  11.3 km/h 95 % 0.00 in /  0 mm 26 W/m2
07:20 41.5 °F /  5.3 °C 40.2 °F /  4.6 °C 30.20 in /  1022.6 hPa NNE 2.0 mph /  3.2 km/h 7.0 mph /  11.3 km/h 95 % 0.00 in /  0 mm 30 W/m2
07:25 41.5 °F /  5.3 °C 40.2 °F /  4.6 °C 30.20 in /  1022.6 hPa NNE 2.0 mph /  3.2 km/h 7.0 mph /  11.3 km/h 95 % 0.00 in /  0 mm 37 W/m2
07:30 41.7 °F /  5.4 °C 40.4 °F /  4.7 °C 30.21 in /  1022.9 hPa NE 2.0 mph /  3.2 km/h 6.0 mph /  9.7 km/h 95 % 0.00 in /  0 mm 46 W/m2
07:35 41.7 °F /  5.4 °C 40.4 °F /  4.7 °C 30.21 in /  1022.9 hPa NE 2.0 mph /  3.2 km/h 7.0 mph /  11.3 km/h 95 % 0.00 in /  0 mm 56 W/m2
07:41 41.7 °F /  5.4 °C 40.4 °F /  4.7 °C 30.21 in /  1022.9 hPa NE 2.0 mph /  3.2 km/h 7.0 mph /  11.3 km/h 95 % 0.00 in /  0 mm 63 W/m2
07:46 41.9 °F /  5.5 °C 40.6 °F /  4.8 °C 30.21 in /  1022.9 hPa NE 2.0 mph /  3.2 km/h 6.0 mph /  9.7 km/h 95 % 0.00 in /  0 mm 70 W/m2
07:51 41.9 °F /  5.5 °C 40.6 °F /  4.8 °C 30.21 in /  1022.9 hPa NNE 1.0 mph /  1.6 km/h 5.0 mph /  8 km/h 95 % 0.00 in /  0 mm 67 W/m2
07:56 42.1 °F /  5.6 °C 40.8 °F /  4.9 °C 30.22 in /  1023.2 hPa NNE 2.0 mph /  3.2 km/h 6.0 mph /  9.7 km/h 95 % 0.00 in /  0 mm 81 W/m2
08:01 42.1 °F /  5.6 °C 40.8 °F /  4.9 °C 30.22 in /  1023.2 hPa NNE 2.0 mph /  3.2 km/h 6.0 mph /  9.7 km/h 95 % 0.00 in /  0 mm 86 W/m2
08:06 42.1 °F /  5.6 °C 40.8 °F /  4.9 °C 30.22 in /  1023.2 hPa NNE 1.0 mph /  1.6 km/h 6.0 mph /  9.7 km/h 95 % 0.00 in /  0 mm 109 W/m2
08:11 42.3 °F /  5.7 °C 40.9 °F /  4.9 °C 30.22 in /  1023.2 hPa NNE 1.0 mph /  1.6 km/h 7.0 mph /  11.3 km/h 95 % 0.00 in /  0 mm 95 W/m2
08:16 42.3 °F /  5.7 °C 40.7 °F /  4.8 °C 30.22 in /  1023.2 hPa NNE 1.0 mph /  1.6 km/h 7.0 mph /  11.3 km/h 94 % 0.00 in /  0 mm 105 W/m2
08:21 42.4 °F /  5.8 °C 40.8 °F /  4.9 °C 30.22 in /  1023.2 hPa NNE 1.0 mph /  1.6 km/h 4.0 mph /  6.4 km/h 94 % 0.00 in /  0 mm 118 W/m2
08:26 42.6 °F /  5.9 °C 41.0 °F /  5 °C 30.23 in /  1023.6 hPa Calm   1.0 mph /  1.6 km/h 94 % 0.00 in /  0 mm 105 W/m2
08:31 42.6 °F /  5.9 °C 40.7 °F /  4.8 °C 30.23 in /  1023.6 hPa NNE 1.0 mph /  1.6 km/h 6.0 mph /  9.7 km/h 93 % 0.00 in /  0 mm 123 W/m2
08:36 42.6 °F /  5.9 °C 40.7 °F /  4.8 °C 30.23 in /  1023.6 hPa NNE 1.0 mph /  1.6 km/h 6.0 mph /  9.7 km/h 93 % 0.00 in /  0 mm 111 W/m2
08:41 42.4 °F /  5.8 °C 40.3 °F /  4.6 °C 30.23 in /  1023.6 hPa ENE 2.0 mph /  3.2 km/h 7.0 mph /  11.3 km/h 92 % 0.00 in /  0 mm 135 W/m2
08:46 42.6 °F /  5.9 °C 40.2 °F /  4.6 °C 30.23 in /  1023.6 hPa ENE 2.0 mph /  3.2 km/h 7.0 mph /  11.3 km/h 91 % 0.00 in /  0 mm 151 W/m2
08:51 42.8 °F /  6 °C 40.1 °F /  4.5 °C 30.23 in /  1023.6 hPa ENE 2.0 mph /  3.2 km/h 7.0 mph /  11.3 km/h 90 % 0.00 in /  0 mm 144 W/m2
08:56 43.0 °F /  6.1 °C 40.2 °F /  4.6 °C 30.23 in /  1023.6 hPa NE 3.0 mph /  4.8 km/h 7.0 mph /  11.3 km/h 90 % 0.00 in /  0 mm 118 W/m2
09:01 43.0 °F /  6.1 °C 40.0 °F /  4.4 °C 30.23 in /  1023.6 hPa NE 2.0 mph /  3.2 km/h 6.0 mph /  9.7 km/h 89 % 0.00 in /  0 mm 146 W/m2
09:06 43.2 °F /  6.2 °C 39.8 °F /  4.3 °C 30.23 in /  1023.6 hPa NE 3.0 mph /  4.8 km/h 8.0 mph /  12.9 km/h 88 % 0.00 in /  0 mm 137 W/m2
09:11 43.2 °F /  6.2 °C 39.8 °F /  4.3 °C 30.23 in /  1023.6 hPa ENE 2.0 mph /  3.2 km/h 8.0 mph /  12.9 km/h 88 % 0.00 in /  0 mm 163 W/m2
09:16 43.3 °F /  6.3 °C 40.0 °F /  4.4 °C 30.23 in /  1023.6 hPa East 1.0 mph /  1.6 km/h 5.0 mph /  8 km/h 88 % 0.00 in /  0 mm 156 W/m2
09:21 43.5 °F /  6.4 °C 39.9 °F /  4.4 °C 30.23 in /  1023.6 hPa East 1.0 mph /  1.6 km/h 5.0 mph /  8 km/h 87 % 0.00 in /  0 mm 165 W/m2
09:26 43.9 °F /  6.6 °C 40.3 °F /  4.6 °C 30.23 in /  1023.6 hPa East 1.0 mph /  1.6 km/h 4.0 mph /  6.4 km/h 87 % 0.00 in /  0 mm 158 W/m2
09:31 44.1 °F /  6.7 °C 40.4 °F /  4.7 °C 30.23 in /  1023.6 hPa Calm   2.0 mph /  3.2 km/h 87 % 0.00 in /  0 mm 158 W/m2
09:36 44.1 °F /  6.7 °C 40.1 °F /  4.5 °C 30.23 in /  1023.6 hPa Calm   4.0 mph /  6.4 km/h 86 % 0.00 in /  0 mm 176 W/m2
09:41 44.2 °F /  6.8 °C 39.7 °F /  4.3 °C 30.23 in /  1023.6 hPa ENE 1.0 mph /  1.6 km/h 4.0 mph /  6.4 km/h 84 % 0.00 in /  0 mm 211 W/m2
09:46 44.4 °F /  6.9 °C 40.2 °F /  4.6 °C 30.23 in /  1023.6 hPa ENE 1.0 mph /  1.6 km/h 5.0 mph /  8 km/h 85 % 0.00 in /  0 mm 148 W/m2
09:51 44.6 °F /  7 °C 40.1 °F /  4.5 °C 30.23 in /  1023.6 hPa ENE 1.0 mph /  1.6 km/h 5.0 mph /  8 km/h 84 % 0.00 in /  0 mm 116 W/m2
09:56 44.4 °F /  6.9 °C 39.0 °F /  3.9 °C 30.23 in /  1023.6 hPa East 2.0 mph /  3.2 km/h 7.0 mph /  11.3 km/h 81 % 0.00 in /  0 mm 120 W/m2
10:01 44.4 °F /  6.9 °C 38.6 °F /  3.7 °C 30.24 in /  1023.9 hPa ENE 3.0 mph /  4.8 km/h 8.0 mph /  12.9 km/h 80 % 0.00 in /  0 mm 121 W/m2
10:06 44.2 °F /  6.8 °C 37.5 °F /  3.1 °C 30.24 in /  1023.9 hPa NE 4.0 mph /  6.4 km/h 8.0 mph /  12.9 km/h 77 % 0.00 in /  0 mm 121 W/m2
10:11 44.4 °F /  6.9 °C 37.7 °F /  3.2 °C 30.24 in /  1023.9 hPa NE 3.0 mph /  4.8 km/h 8.0 mph /  12.9 km/h 77 % 0.00 in /  0 mm 153 W/m2
10:16 44.4 °F /  6.9 °C 37.3 °F /  2.9 °C 30.24 in /  1023.9 hPa NE 2.0 mph /  3.2 km/h 6.0 mph /  9.7 km/h 76 % 0.00 in /  0 mm 155 W/m2
10:21 44.6 °F /  7 °C 37.5 °F /  3.1 °C 30.24 in /  1023.9 hPa ENE 3.0 mph /  4.8 km/h 8.0 mph /  12.9 km/h 76 % 0.00 in /  0 mm 178 W/m2
10:26 44.8 °F /  7.1 °C 37.7 °F /  3.2 °C 30.24 in /  1023.9 hPa ENE 2.0 mph /  3.2 km/h 8.0 mph /  12.9 km/h 76 % 0.00 in /  0 mm 199 W/m2
10:31 45.0 °F /  7.2 °C 37.5 °F /  3.1 °C 30.24 in /  1023.9 hPa NE 2.0 mph /  3.2 km/h 6.0 mph /  9.7 km/h 75 % 0.00 in /  0 mm 183 W/m2
10:36 45.0 °F /  7.2 °C 37.2 °F /  2.9 °C 30.24 in /  1023.9 hPa NE 3.0 mph /  4.8 km/h 7.0 mph /  11.3 km/h 74 % 0.00 in /  0 mm 183 W/m2
10:41 45.1 °F /  7.3 °C 37.7 °F /  3.2 °C 30.24 in /  1023.9 hPa ENE 3.0 mph /  4.8 km/h 7.0 mph /  11.3 km/h 75 % 0.00 in /  0 mm 214 W/m2
10:46 45.3 °F /  7.4 °C 37.9 °F /  3.3 °C 30.24 in /  1023.9 hPa East 2.0 mph /  3.2 km/h 6.0 mph /  9.7 km/h 75 % 0.00 in /  0 mm 227 W/m2
10:52 45.3 °F /  7.4 °C 37.2 °F /  2.9 °C 30.24 in /  1023.9 hPa ENE 3.0 mph /  4.8 km/h 7.0 mph /  11.3 km/h 73 % 0.00 in /  0 mm 223 W/m2
10:57 45.5 °F /  7.5 °C 37.3 °F /  2.9 °C 30.24 in /  1023.9 hPa NE 3.0 mph /  4.8 km/h 7.0 mph /  11.3 km/h 73 % 0.00 in /  0 mm 229 W/m2
11:02 45.7 °F /  7.6 °C 37.5 °F /  3.1 °C 30.24 in /  1023.9 hPa NE 2.0 mph /  3.2 km/h 5.0 mph /  8 km/h 73 % 0.00 in /  0 mm 207 W/m2
11:07 45.9 °F /  7.7 °C 37.7 °F /  3.2 °C 30.25 in /  1024.3 hPa ENE 3.0 mph /  4.8 km/h 9.0 mph /  14.5 km/h 73 % 0.00 in /  0 mm 200 W/m2
11:12 45.9 °F /  7.7 °C 37.3 °F /  2.9 °C 30.25 in /  1024.3 hPa ENE 4.0 mph /  6.4 km/h 9.0 mph /  14.5 km/h 72 % 0.00 in /  0 mm 200 W/m2
11:17 45.7 °F /  7.6 °C 37.5 °F /  3.1 °C 30.25 in /  1024.3 hPa ENE 4.0 mph /  6.4 km/h 9.0 mph /  14.5 km/h 73 % 0.00 in /  0 mm 195 W/m2
11:22 45.9 °F /  7.7 °C 38.0 °F /  3.3 °C 30.25 in /  1024.3 hPa ENE 3.0 mph /  4.8 km/h 8.0 mph /  12.9 km/h 74 % 0.00 in /  0 mm 207 W/m2
11:27 45.9 °F /  7.7 °C 37.7 °F /  3.2 °C 30.25 in /  1024.3 hPa ENE 3.0 mph /  4.8 km/h 8.0 mph /  12.9 km/h 73 % 0.00 in /  0 mm 250 W/m2
11:32 46.0 °F /  7.8 °C 37.5 °F /  3.1 °C 30.25 in /  1024.3 hPa ENE 3.0 mph /  4.8 km/h 7.0 mph /  11.3 km/h 72 % 0.00 in /  0 mm 271 W/m2
11:37 46.0 °F /  7.8 °C 37.5 °F /  3.1 °C 30.25 in /  1024.3 hPa ENE 3.0 mph /  4.8 km/h 7.0 mph /  11.3 km/h 72 % 0.00 in /  0 mm 250 W/m2
11:42 46.2 °F /  7.9 °C 37.7 °F /  3.2 °C 30.25 in /  1024.3 hPa East 4.0 mph /  6.4 km/h 8.0 mph /  12.9 km/h 72 % 0.00 in /  0 mm 239 W/m2
11:47 46.2 °F /  7.9 °C 37.3 °F /  2.9 °C 30.25 in /  1024.3 hPa ENE 5.0 mph /  8 km/h 10.0 mph /  16.1 km/h 71 % 0.00 in /  0 mm 229 W/m2
11:52 46.0 °F /  7.8 °C 37.2 °F /  2.9 °C 30.25 in /  1024.3 hPa ENE 4.0 mph /  6.4 km/h 10.0 mph /  16.1 km/h 71 % 0.00 in /  0 mm 197 W/m2
11:57 46.2 °F /  7.9 °C 37.7 °F /  3.2 °C 30.25 in /  1024.3 hPa ENE 2.0 mph /  3.2 km/h 6.0 mph /  9.7 km/h 72 % 0.00 in /  0 mm 185 W/m2
12:02 46.2 °F /  7.9 °C 37.0 °F /  2.8 °C 30.25 in /  1024.3 hPa East 2.0 mph /  3.2 km/h 7.0 mph /  11.3 km/h 70 % 0.00 in /  0 mm 199 W/m2
12:07 46.2 °F /  7.9 °C 37.3 °F /  2.9 °C 30.25 in /  1024.3 hPa ENE 2.0 mph /  3.2 km/h 7.0 mph /  11.3 km/h 71 % 0.00 in /  0 mm 216 W/m2
12:12 46.6 °F /  8.1 °C 38.0 °F /  3.3 °C 30.25 in /  1024.3 hPa ENE 1.0 mph /  1.6 km/h 5.0 mph /  8 km/h 72 % 0.00 in /  0 mm 262 W/m2
12:17 46.8 °F /  8.2 °C 36.8 °F /  2.7 °C 30.25 in /  1024.3 hPa NE 2.0 mph /  3.2 km/h 6.0 mph /  9.7 km/h 68 % 0.00 in /  0 mm 297 W/m2
12:22 46.9 °F /  8.3 °C 36.5 °F /  2.5 °C 30.26 in /  1024.6 hPa NNE 2.0 mph /  3.2 km/h 6.0 mph /  9.7 km/h 67 % 0.00 in /  0 mm 281 W/m2
12:27 47.3 °F /  8.5 °C 37.3 °F /  2.9 °C 30.26 in /  1024.6 hPa NE 2.0 mph /  3.2 km/h 6.0 mph /  9.7 km/h 68 % 0.00 in /  0 mm 264 W/m2
12:32 47.3 °F /  8.5 °C 36.9 °F /  2.7 °C 30.26 in /  1024.6 hPa ENE 2.0 mph /  3.2 km/h 6.0 mph /  9.7 km/h 67 % 0.00 in /  0 mm 269 W/m2
12:37 47.5 °F /  8.6 °C 37.1 °F /  2.8 °C 30.25 in /  1024.3 hPa East 2.0 mph /  3.2 km/h 6.0 mph /  9.7 km/h 67 % 0.00 in /  0 mm 302 W/m2
12:42 47.5 °F /  8.6 °C 36.7 °F /  2.6 °C 30.26 in /  1024.6 hPa East 2.0 mph /  3.2 km/h 6.0 mph /  9.7 km/h 66 % 0.00 in /  0 mm 366 W/m2
12:47 47.5 °F /  8.6 °C 36.3 °F /  2.4 °C 30.25 in /  1024.3 hPa ENE 2.0 mph /  3.2 km/h 6.0 mph /  9.7 km/h 65 % 0.00 in /  0 mm 431 W/m2
12:52 47.8 °F /  8.8 °C 36.6 °F /  2.6 °C 30.26 in /  1024.6 hPa North 2.0 mph /  3.2 km/h 6.0 mph /  9.7 km/h 65 % 0.00 in /  0 mm 401 W/m2
12:57 48.0 °F /  8.9 °C 36.4 °F /  2.4 °C 30.25 in /  1024.3 hPa NNE 3.0 mph /  4.8 km/h 7.0 mph /  11.3 km/h 64 % 0.00 in /  0 mm 338 W/m2
13:02 48.0 °F /  8.9 °C 36.4 °F /  2.4 °C 30.25 in /  1024.3 hPa NE 3.0 mph /  4.8 km/h 7.0 mph /  11.3 km/h 64 % 0.00 in /  0 mm 330 W/m2
13:07 47.8 °F /  8.8 °C 36.2 °F /  2.3 °C 30.25 in /  1024.3 hPa ENE 2.0 mph /  3.2 km/h 6.0 mph /  9.7 km/h 64 % 0.00 in /  0 mm 336 W/m2
13:12 48.0 °F /  8.9 °C 37.2 °F /  2.9 °C 30.26 in /  1024.6 hPa ENE 1.0 mph /  1.6 km/h 6.0 mph /  9.7 km/h 66 % 0.00 in /  0 mm 304 W/m2
13:17 48.2 °F /  9 °C 37.0 °F /  2.8 °C 30.26 in /  1024.6 hPa NE 3.0 mph /  4.8 km/h 7.0 mph /  11.3 km/h 65 % 0.00 in /  0 mm 295 W/m2
13:18 48.2 °F /  9 °C 37.4 °F /  3 °C 30.26 in /  1024.6 hPa NE 3.0 mph /  4.8 km/h 7.0 mph /  11.3 km/h 66 % 0.00 in /  0 mm 297 W/m2
13:23 48.4 °F /  9.1 °C 37.2 °F /  2.9 °C 30.26 in /  1024.6 hPa ENE 3.0 mph /  4.8 km/h 8.0 mph /  12.9 km/h 65 % 0.00 in /  0 mm 302 W/m2
13:28 48.0 °F /  8.9 °C 36.0 °F /  2.2 °C 30.26 in /  1024.6 hPa ENE 2.0 mph /  3.2 km/h 8.0 mph /  12.9 km/h 63 % 0.00 in /  0 mm 304 W/m2
13:33 48.2 °F /  9 °C 36.2 °F /  2.3 °C 30.26 in /  1024.6 hPa NE 2.0 mph /  3.2 km/h 6.0 mph /  9.7 km/h 63 % 0.00 in /  0 mm 299 W/m2
13:38 48.4 °F /  9.1 °C 36.4 °F /  2.4 °C 30.26 in /  1024.6 hPa NE 1.0 mph /  1.6 km/h 6.0 mph /  9.7 km/h 63 % 0.00 in /  0 mm 269 W/m2
13:43 48.7 °F /  9.3 °C 37.1 °F /  2.8 °C 30.26 in /  1024.6 hPa NNW 1.0 mph /  1.6 km/h 6.0 mph /  9.7 km/h 64 % 0.00 in /  0 mm 257 W/m2
13:49 48.9 °F /  9.4 °C 36.9 °F /  2.7 °C 30.26 in /  1024.6 hPa North 2.0 mph /  3.2 km/h 7.0 mph /  11.3 km/h 63 % 0.00 in /  0 mm 265 W/m2
13:54 49.1 °F /  9.5 °C 36.6 °F /  2.6 °C 30.26 in /  1024.6 hPa NNW 4.0 mph /  6.4 km/h 8.0 mph /  12.9 km/h 62 % 0.00 in /  0 mm 251 W/m2
13:59 49.3 °F /  9.6 °C 36.8 °F /  2.7 °C 30.26 in /  1024.6 hPa NW 2.0 mph /  3.2 km/h 8.0 mph /  12.9 km/h 62 % 0.00 in /  0 mm 265 W/m2
14:04 49.6 °F /  9.8 °C 36.7 °F /  2.6 °C 30.26 in /  1024.6 hPa NNW 1.0 mph /  1.6 km/h 7.0 mph /  11.3 km/h 61 % 0.00 in /  0 mm 578 W/m2
14:09 49.8 °F /  9.9 °C 36.5 °F /  2.5 °C 30.26 in /  1024.6 hPa NNW 2.0 mph /  3.2 km/h 7.0 mph /  11.3 km/h 60 % 0.00 in /  0 mm 888 W/m2
14:14 50.5 °F /  10.3 °C 38.0 °F /  3.3 °C 30.26 in /  1024.6 hPa West 2.0 mph /  3.2 km/h 7.0 mph /  11.3 km/h 62 % 0.00 in /  0 mm 939 W/m2
14:19 51.1 °F /  10.6 °C 37.7 °F /  3.2 °C 30.26 in /  1024.6 hPa West 4.0 mph /  6.4 km/h 10.0 mph /  16.1 km/h 60 % 0.00 in /  0 mm 881 W/m2
14:24 51.6 °F /  10.9 °C 38.2 °F /  3.4 °C 30.26 in /  1024.6 hPa West 5.0 mph /  8 km/h 10.0 mph /  16.1 km/h 60 % 0.00 in /  0 mm 1083 W/m2
14:29 52.3 °F /  11.3 °C 38.4 °F /  3.6 °C 30.26 in /  1024.6 hPa West 6.0 mph /  9.7 km/h 11.0 mph /  17.7 km/h 59 % 0.00 in /  0 mm 1025 W/m2
14:34 52.7 °F /  11.5 °C 37.4 °F /  3 °C 30.26 in /  1024.6 hPa WNW 7.0 mph /  11.3 km/h 12.0 mph /  19.3 km/h 56 % 0.00 in /  0 mm 526 W/m2
14:39 52.9 °F /  11.6 °C 37.6 °F /  3.1 °C 30.26 in /  1024.6 hPa WNW 7.0 mph /  11.3 km/h 12.0 mph /  19.3 km/h 56 % 0.00 in /  0 mm 1076 W/m2
14:44 53.4 °F /  11.9 °C 37.6 °F /  3.1 °C 30.26 in /  1024.6 hPa WNW 7.0 mph /  11.3 km/h 11.0 mph /  17.7 km/h 55 % 0.00 in /  0 mm 1063 W/m2
14:49 53.2 °F /  11.8 °C 37.0 °F /  2.8 °C 30.26 in /  1024.6 hPa West 7.0 mph /  11.3 km/h 13.0 mph /  20.9 km/h 54 % 0.00 in /  0 mm 519 W/m2
14:54 53.2 °F /  11.8 °C 37.0 °F /  2.8 °C 30.26 in /  1024.6 hPa West 7.0 mph /  11.3 km/h 13.0 mph /  20.9 km/h 54 % 0.00 in /  0 mm 1049 W/m2
14:59 53.2 °F /  11.8 °C 37.5 °F /  3.1 °C 30.26 in /  1024.6 hPa WSW 6.0 mph /  9.7 km/h 12.0 mph /  19.3 km/h 55 % 0.00 in /  0 mm 425 W/m2
15:04 52.9 °F /  11.6 °C 37.6 °F /  3.1 °C 30.26 in /  1024.6 hPa WSW 6.0 mph /  9.7 km/h 11.0 mph /  17.7 km/h 56 % 0.00 in /  0 mm 394 W/m2
15:09 53.1 °F /  11.7 °C 37.3 °F /  2.9 °C 30.26 in /  1024.6 hPa West 5.0 mph /  8 km/h 11.0 mph /  17.7 km/h 55 % 0.00 in /  0 mm 237 W/m2
15:14 52.9 °F /  11.6 °C 37.1 °F /  2.8 °C 30.26 in /  1024.6 hPa WNW 4.0 mph /  6.4 km/h 9.0 mph /  14.5 km/h 55 % 0.00 in /  0 mm 185 W/m2
15:19 52.5 °F /  11.4 °C 36.8 °F /  2.7 °C 30.26 in /  1024.6 hPa WNW 5.0 mph /  8 km/h 11.0 mph /  17.7 km/h 55 % 0.00 in /  0 mm 183 W/m2
15:24 52.2 °F /  11.2 °C 36.9 °F /  2.7 °C 30.26 in /  1024.6 hPa WNW 6.0 mph /  9.7 km/h 11.0 mph /  17.7 km/h 56 % 0.00 in /  0 mm 200 W/m2
15:29 51.8 °F /  11 °C 37.0 °F /  2.8 °C 30.26 in /  1024.6 hPa NW 6.0 mph /  9.7 km/h 10.0 mph /  16.1 km/h 57 % 0.00 in /  0 mm 227 W/m2
15:34 51.4 °F /  10.8 °C 36.3 °F /  2.4 °C 30.26 in /  1024.6 hPa NNW 4.0 mph /  6.4 km/h 10.0 mph /  16.1 km/h 56 % 0.00 in /  0 mm 237 W/m2
15:39 51.1 °F /  10.6 °C 36.4 °F /  2.4 °C 30.26 in /  1024.6 hPa NNW 3.0 mph /  4.8 km/h 7.0 mph /  11.3 km/h 57 % 0.00 in /  0 mm 248 W/m2
15:44 51.3 °F /  10.7 °C 36.1 °F /  2.3 °C 30.26 in /  1024.6 hPa NW 3.0 mph /  4.8 km/h 7.0 mph /  11.3 km/h 56 % 0.00 in /  0 mm 244 W/m2
15:46 51.3 °F /  10.7 °C 36.5 °F /  2.5 °C 30.26 in /  1024.6 hPa NW 3.0 mph /  4.8 km/h 7.0 mph /  11.3 km/h 57 % 0.00 in /  0 mm 244 W/m2
15:51 51.3 °F /  10.7 °C 36.5 °F /  2.5 °C 30.26 in /  1024.6 hPa NW 4.0 mph /  6.4 km/h 8.0 mph /  12.9 km/h 57 % 0.00 in /  0 mm 234 W/m2
15:56 51.3 °F /  10.7 °C 36.5 °F /  2.5 °C 30.26 in /  1024.6 hPa NW 4.0 mph /  6.4 km/h 8.0 mph /  12.9 km/h 57 % 0.00 in /  0 mm 220 W/m2
16:01 51.3 °F /  10.7 °C 36.1 °F /  2.3 °C 30.26 in /  1024.6 hPa NW 3.0 mph /  4.8 km/h 8.0 mph /  12.9 km/h 56 % 0.00 in /  0 mm 218 W/m2
16:06 51.3 °F /  10.7 °C 36.5 °F /  2.5 °C 30.27 in /  1024.9 hPa NW 4.0 mph /  6.4 km/h 8.0 mph /  12.9 km/h 57 % 0.00 in /  0 mm 225 W/m2
16:11 51.4 °F /  10.8 °C 36.7 °F /  2.6 °C 30.26 in /  1024.6 hPa NW 3.0 mph /  4.8 km/h 8.0 mph /  12.9 km/h 57 % 0.00 in /  0 mm 216 W/m2
16:16 51.4 °F /  10.8 °C 36.7 °F /  2.6 °C 30.26 in /  1024.6 hPa WNW 4.0 mph /  6.4 km/h 9.0 mph /  14.5 km/h 57 % 0.00 in /  0 mm 213 W/m2
16:21 51.4 °F /  10.8 °C 36.7 °F /  2.6 °C 30.26 in /  1024.6 hPa WNW 5.0 mph /  8 km/h 9.0 mph /  14.5 km/h 57 % 0.00 in /  0 mm 216 W/m2
16:26 51.4 °F /  10.8 °C 35.8 °F /  2.1 °C 30.26 in /  1024.6 hPa WNW 5.0 mph /  8 km/h 9.0 mph /  14.5 km/h 55 % 0.00 in /  0 mm 218 W/m2
16:31 51.3 °F /  10.7 °C 37.0 °F /  2.8 °C 30.26 in /  1024.6 hPa WNW 3.0 mph /  4.8 km/h 8.0 mph /  12.9 km/h 58 % 0.00 in /  0 mm 246 W/m2
16:37 51.3 °F /  10.7 °C 36.5 °F /  2.5 °C 30.26 in /  1024.6 hPa WNW 3.0 mph /  4.8 km/h 8.0 mph /  12.9 km/h 57 % 0.00 in /  0 mm 195 W/m2
16:42 51.1 °F /  10.6 °C 36.8 °F /  2.7 °C 30.26 in /  1024.6 hPa West 3.0 mph /  4.8 km/h 7.0 mph /  11.3 km/h 58 % 0.00 in /  0 mm 171 W/m2
16:47 51.3 °F /  10.7 °C 37.4 °F /  3 °C 30.26 in /  1024.6 hPa WNW 2.0 mph /  3.2 km/h 6.0 mph /  9.7 km/h 59 % 0.00 in /  0 mm 202 W/m2
16:52 51.3 °F /  10.7 °C 37.0 °F /  2.8 °C 30.26 in /  1024.6 hPa NW 2.0 mph /  3.2 km/h 6.0 mph /  9.7 km/h 58 % 0.00 in /  0 mm 241 W/m2
16:57 51.4 °F /  10.8 °C 37.1 °F /  2.8 °C 30.26 in /  1024.6 hPa WNW 4.0 mph /  6.4 km/h 10.0 mph /  16.1 km/h 58 % 0.00 in /  0 mm 218 W/m2
17:02 51.6 °F /  10.9 °C 37.3 °F /  2.9 °C 30.26 in /  1024.6 hPa WNW 5.0 mph /  8 km/h 10.0 mph /  16.1 km/h 58 % 0.00 in /  0 mm 461 W/m2
17:07 51.6 °F /  10.9 °C 36.9 °F /  2.7 °C 30.26 in /  1024.6 hPa WNW 4.0 mph /  6.4 km/h 10.0 mph /  16.1 km/h 57 % 0.00 in /  0 mm 429 W/m2
17:12 52.0 °F /  11.1 °C 36.8 °F /  2.7 °C 30.26 in /  1024.6 hPa West 4.0 mph /  6.4 km/h 6.0 mph /  9.7 km/h 56 % 0.00 in /  0 mm 413 W/m2
17:17 52.2 °F /  11.2 °C 36.5 °F /  2.5 °C 30.25 in /  1024.3 hPa West 2.0 mph /  3.2 km/h 6.0 mph /  9.7 km/h 55 % 0.00 in /  0 mm 381 W/m2
17:22 52.7 °F /  11.5 °C 37.0 °F /  2.8 °C 30.26 in /  1024.6 hPa West 1.0 mph /  1.6 km/h 5.0 mph /  8 km/h 55 % 0.00 in /  0 mm 387 W/m2
17:27 53.1 °F /  11.7 °C 36.4 °F /  2.4 °C 30.26 in /  1024.6 hPa West 2.0 mph /  3.2 km/h 6.0 mph /  9.7 km/h 53 % 0.00 in /  0 mm 371 W/m2
17:32 53.4 °F /  11.9 °C 36.2 °F /  2.3 °C 30.26 in /  1024.6 hPa WNW 2.0 mph /  3.2 km/h 6.0 mph /  9.7 km/h 52 % 0.00 in /  0 mm 352 W/m2
17:37 53.6 °F /  12 °C 36.9 °F /  2.7 °C 30.26 in /  1024.6 hPa WNW 2.0 mph /  3.2 km/h 6.0 mph /  9.7 km/h 53 % 0.00 in /  0 mm 346 W/m2
17:42 53.8 °F /  12.1 °C 36.6 °F /  2.6 °C 30.26 in /  1024.6 hPa WNW 3.0 mph /  4.8 km/h 8.0 mph /  12.9 km/h 52 % 0.00 in /  0 mm 362 W/m2
17:47 54.0 °F /  12.2 °C 35.7 °F /  2.1 °C 30.26 in /  1024.6 hPa NW 3.0 mph /  4.8 km/h 8.0 mph /  12.9 km/h 50 % 0.00 in /  0 mm 411 W/m2
17:49 54.0 °F /  12.2 °C 36.2 °F /  2.3 °C 30.26 in /  1024.6 hPa NW 4.0 mph /  6.4 km/h 8.0 mph /  12.9 km/h 51 % 0.00 in /  0 mm 172 W/m2
17:54 53.6 °F /  12 °C 34.9 °F /  1.6 °C 30.26 in /  1024.6 hPa NNW 4.0 mph /  6.4 km/h 9.0 mph /  14.5 km/h 49 % 0.00 in /  0 mm 123 W/m2
17:59 52.9 °F /  11.6 °C 35.2 °F /  1.8 °C 30.26 in /  1024.6 hPa NNW 4.0 mph /  6.4 km/h 9.0 mph /  14.5 km/h 51 % 0.00 in /  0 mm 109 W/m2
18:04 52.5 °F /  11.4 °C 36.3 °F /  2.4 °C 30.26 in /  1024.6 hPa NW 2.0 mph /  3.2 km/h 7.0 mph /  11.3 km/h 54 % 0.00 in /  0 mm 105 W/m2
18:09 52.3 °F /  11.3 °C 36.2 °F /  2.3 °C 30.26 in /  1024.6 hPa NW 2.0 mph /  3.2 km/h 7.0 mph /  11.3 km/h 54 % 0.00 in /  0 mm 97 W/m2
18:14 52.2 °F /  11.2 °C 36.5 °F /  2.5 °C 30.26 in /  1024.6 hPa NW 2.0 mph /  3.2 km/h 7.0 mph /  11.3 km/h 55 % 0.00 in /  0 mm 81 W/m2
18:24 52.0 °F /  11.1 °C 36.3 °F /  2.4 °C 30.26 in /  1024.6 hPa NW 2.0 mph /  3.2 km/h 6.0 mph /  9.7 km/h 55 % 0.00 in /  0 mm 56 W/m2
18:29 51.6 °F /  10.9 °C 36.4 °F /  2.4 °C 30.26 in /  1024.6 hPa NW 3.0 mph /  4.8 km/h 6.0 mph /  9.7 km/h 56 % 0.00 in /  0 mm 44 W/m2
18:34 51.3 °F /  10.7 °C 35.6 °F /  2 °C 30.26 in /  1024.6 hPa WNW 2.0 mph /  3.2 km/h 6.0 mph /  9.7 km/h 55 % 0.00 in /  0 mm 39 W/m2
18:39 50.9 °F /  10.5 °C 35.7 °F /  2.1 °C 30.27 in /  1024.9 hPa NNW 2.0 mph /  3.2 km/h 6.0 mph /  9.7 km/h 56 % 0.00 in /  0 mm 28 W/m2
18:44 50.5 °F /  10.3 °C 35.9 °F /  2.2 °C 30.27 in /  1024.9 hPa North 1.0 mph /  1.6 km/h 6.0 mph /  9.7 km/h 57 % 0.00 in /  0 mm 37 W/m2
18:49 50.5 °F /  10.3 °C 35.4 °F /  1.9 °C 30.26 in /  1024.6 hPa Calm   2.0 mph /  3.2 km/h 56 % 0.00 in /  0 mm 40 W/m2
18:54 50.4 °F /  10.2 °C 35.7 °F /  2.1 °C 30.26 in /  1024.6 hPa North 1.0 mph /  1.6 km/h 4.0 mph /  6.4 km/h 57 % 0.00 in /  0 mm 35 W/m2
18:59 50.2 °F /  10.1 °C 36.0 °F /  2.2 °C 30.26 in /  1024.6 hPa North 1.0 mph /  1.6 km/h 4.0 mph /  6.4 km/h 58 % 0.00 in /  0 mm 32 W/m2
19:04 50.2 °F /  10.1 °C 36.0 °F /  2.2 °C 30.27 in /  1024.9 hPa North 1.0 mph /  1.6 km/h 5.0 mph /  8 km/h 58 % 0.00 in /  0 mm 26 W/m2
19:09 50.0 °F /  10 °C 35.4 °F /  1.9 °C 30.27 in /  1024.9 hPa NNE 2.0 mph /  3.2 km/h 6.0 mph /  9.7 km/h 57 % 0.00 in /  0 mm 23 W/m2
19:14 49.8 °F /  9.9 °C 35.6 °F /  2 °C 30.27 in /  1024.9 hPa NE 2.0 mph /  3.2 km/h 6.0 mph /  9.7 km/h 58 % 0.00 in /  0 mm 21 W/m2
19:19 49.6 °F /  9.8 °C 35.5 °F /  1.9 °C 30.27 in /  1024.9 hPa NE 2.0 mph /  3.2 km/h 6.0 mph /  9.7 km/h 58 % 0.00 in /  0 mm 18 W/m2
19:24 49.5 °F /  9.7 °C 35.3 °F /  1.8 °C 30.27 in /  1024.9 hPa NE 1.0 mph /  1.6 km/h 6.0 mph /  9.7 km/h 58 % 0.00 in /  0 mm 14 W/m2
19:29 49.5 °F /  9.7 °C 35.7 °F /  2.1 °C 30.27 in /  1024.9 hPa Calm   3.0 mph /  4.8 km/h 59 % 0.00 in /  0 mm 9 W/m2
19:34 49.3 °F /  9.6 °C 35.5 °F /  1.9 °C 30.28 in /  1025.3 hPa Calm   2.0 mph /  3.2 km/h 59 % 0.00 in /  0 mm 7 W/m2
19:39 49.3 °F /  9.6 °C 36.0 °F /  2.2 °C 30.28 in /  1025.3 hPa Calm   3.0 mph /  4.8 km/h 60 % 0.00 in /  0 mm 7 W/m2
19:44 48.9 °F /  9.4 °C 35.2 °F /  1.8 °C 30.28 in /  1025.3 hPa NE 2.0 mph /  3.2 km/h 7.0 mph /  11.3 km/h 59 % 0.00 in /  0 mm 5 W/m2
19:49 48.9 °F /  9.4 °C 36.1 °F /  2.3 °C 30.28 in /  1025.3 hPa NE 2.0 mph /  3.2 km/h 7.0 mph /  11.3 km/h 61 % 0.00 in /  0 mm 0 W/m2
19:54 48.7 °F /  9.3 °C 35.5 °F /  1.9 °C 30.28 in /  1025.3 hPa NE 1.0 mph /  1.6 km/h 4.0 mph /  6.4 km/h 60 % 0.00 in /  0 mm 0 W/m2
19:59 48.7 °F /  9.3 °C 35.9 °F /  2.2 °C 30.28 in /  1025.3 hPa Calm   3.0 mph /  4.8 km/h 61 % 0.00 in /  0 mm 0 W/m2
20:04 48.6 °F /  9.2 °C 36.1 °F /  2.3 °C 30.28 in /  1025.3 hPa Calm   2.0 mph /  3.2 km/h 62 % 0.00 in /  0 mm 0 W/m2
20:09 48.6 °F /  9.2 °C 35.7 °F /  2.1 °C 30.28 in /  1025.3 hPa Calm   2.0 mph /  3.2 km/h 61 % 0.00 in /  0 mm 0 W/m2
20:14 48.4 °F /  9.1 °C 35.5 °F /  1.9 °C 30.29 in /  1025.6 hPa NE 1.0 mph /  1.6 km/h 4.0 mph /  6.4 km/h 61 % 0.00 in /  0 mm 0 W/m2
20:19 48.4 °F /  9.1 °C 36.0 °F /  2.2 °C 30.29 in /  1025.6 hPa NE 1.0 mph /  1.6 km/h 4.0 mph /  6.4 km/h 62 % 0.00 in /  0 mm 0 W/m2
20:30 48.4 °F /  9.1 °C 36.4 °F /  2.4 °C 30.29 in /  1025.6 hPa ENE 1.0 mph /  1.6 km/h 6.0 mph /  9.7 km/h 63 % 0.00 in /  0 mm 0 W/m2
20:35 48.0 °F /  8.9 °C 36.8 °F /  2.7 °C 30.29 in /  1025.6 hPa ENE 2.0 mph /  3.2 km/h 6.0 mph /  9.7 km/h 65 % 0.00 in /  0 mm 0 W/m2
20:40 47.8 °F /  8.8 °C 37.0 °F /  2.8 °C 30.29 in /  1025.6 hPa ENE 2.0 mph /  3.2 km/h 6.0 mph /  9.7 km/h 66 % 0.00 in /  0 mm 0 W/m2
20:45 47.7 °F /  8.7 °C 37.2 °F /  2.9 °C 30.30 in /  1026 hPa East 1.0 mph /  1.6 km/h 5.0 mph /  8 km/h 67 % 0.00 in /  0 mm 0 W/m2
20:50 47.5 °F /  8.6 °C 37.8 °F /  3.2 °C 30.30 in /  1026 hPa East 1.0 mph /  1.6 km/h 5.0 mph /  8 km/h 69 % 0.00 in /  0 mm 0 W/m2
20:55 47.5 °F /  8.6 °C 37.8 °F /  3.2 °C 30.30 in /  1026 hPa East 1.0 mph /  1.6 km/h 5.0 mph /  8 km/h 69 % 0.00 in /  0 mm 0 W/m2
21:00 47.3 °F /  8.5 °C 38.0 °F /  3.3 °C 30.31 in /  1026.3 hPa ESE 1.0 mph /  1.6 km/h 6.0 mph /  9.7 km/h 70 % 0.00 in /  0 mm 0 W/m2
21:05 47.1 °F /  8.4 °C 38.2 °F /  3.4 °C 30.31 in /  1026.3 hPa ESE 1.0 mph /  1.6 km/h 6.0 mph /  9.7 km/h 71 % 0.00 in /  0 mm 0 W/m2
21:10 47.1 °F /  8.4 °C 38.6 °F /  3.7 °C 30.31 in /  1026.3 hPa Calm   4.0 mph /  6.4 km/h 72 % 0.00 in /  0 mm 0 W/m2
21:15 46.9 °F /  8.3 °C 38.4 °F /  3.6 °C 30.31 in /  1026.3 hPa Calm     72 % 0.00 in /  0 mm 0 W/m2
21:20 46.9 °F /  8.3 °C 38.7 °F /  3.7 °C 30.31 in /  1026.3 hPa Calm     73 % 0.00 in /  0 mm 0 W/m2
21:25 46.8 °F /  8.2 °C 38.6 °F /  3.7 °C 30.31 in /  1026.3 hPa Calm     73 % 0.00 in /  0 mm 0 W/m2
21:30 46.8 °F /  8.2 °C 38.6 °F /  3.7 °C 30.31 in /  1026.3 hPa Calm     73 % 0.00 in /  0 mm 0 W/m2
21:35 46.6 °F /  8.1 °C 38.4 °F /  3.6 °C 30.31 in /  1026.3 hPa Calm     73 % 0.00 in /  0 mm 0 W/m2
21:40 46.6 °F /  8.1 °C 38.7 °F /  3.7 °C 30.31 in /  1026.3 hPa Calm     74 % 0.00 in /  0 mm 0 W/m2
21:45 46.4 °F /  8 °C 38.6 °F /  3.7 °C 30.32 in /  1026.6 hPa Calm   3.0 mph /  4.8 km/h 74 % 0.00 in /  0 mm 0 W/m2
21:50 46.2 °F /  7.9 °C 38.7 °F /  3.7 °C 30.32 in /  1026.6 hPa SE 1.0 mph /  1.6 km/h 3.0 mph /  4.8 km/h 75 % 0.00 in /  0 mm 0 W/m2
21:55 46.2 °F /  7.9 °C 39.1 °F /  3.9 °C 30.32 in /  1026.6 hPa Calm   2.0 mph /  3.2 km/h 76 % 0.00 in /  0 mm 0 W/m2
22:00 46.2 °F /  7.9 °C 39.1 °F /  3.9 °C 30.32 in /  1026.6 hPa Calm   2.0 mph /  3.2 km/h 76 % 0.00 in /  0 mm 0 W/m2
22:05 46.0 °F /  7.8 °C 38.9 °F /  3.8 °C 30.32 in /  1026.6 hPa NW 2.0 mph /  3.2 km/h 7.0 mph /  11.3 km/h 76 % 0.00 in /  0 mm 0 W/m2
22:10 46.2 °F /  7.9 °C 39.1 °F /  3.9 °C 30.32 in /  1026.6 hPa NW 3.0 mph /  4.8 km/h 7.0 mph /  11.3 km/h 76 % 0.00 in /  0 mm 0 W/m2
22:15 46.2 °F /  7.9 °C 39.1 °F /  3.9 °C 30.32 in /  1026.6 hPa NW 2.0 mph /  3.2 km/h 6.0 mph /  9.7 km/h 76 % 0.00 in /  0 mm 0 W/m2
22:20 46.0 °F /  7.8 °C 39.2 °F /  4 °C 30.32 in /  1026.6 hPa NW 2.0 mph /  3.2 km/h 5.0 mph /  8 km/h 77 % 0.00 in /  0 mm 0 W/m2
22:25 46.0 °F /  7.8 °C 39.2 °F /  4 °C 30.32 in /  1026.6 hPa NW 2.0 mph /  3.2 km/h 5.0 mph /  8 km/h 77 % 0.00 in /  0 mm 0 W/m2
22:30 46.0 °F /  7.8 °C 39.2 °F /  4 °C 30.32 in /  1026.6 hPa NW 2.0 mph /  3.2 km/h 6.0 mph /  9.7 km/h 77 % 0.00 in /  0 mm 0 W/m2
22:35 46.0 °F /  7.8 °C 39.2 °F /  4 °C 30.32 in /  1026.6 hPa NW 2.0 mph /  3.2 km/h 6.0 mph /  9.7 km/h 77 % 0.00 in /  0 mm 0 W/m2
22:40 46.0 °F /  7.8 °C 39.2 °F /  4 °C 30.33 in /  1027 hPa NNW 2.0 mph /  3.2 km/h 5.0 mph /  8 km/h 77 % 0.00 in /  0 mm 0 W/m2
22:45 46.0 °F /  7.8 °C 39.6 °F /  4.2 °C 30.33 in /  1027 hPa NNW 3.0 mph /  4.8 km/h 7.0 mph /  11.3 km/h 78 % 0.00 in /  0 mm 0 W/m2
22:50 45.9 °F /  7.7 °C 39.4 °F /  4.1 °C 30.33 in /  1027 hPa NNW 3.0 mph /  4.8 km/h 7.0 mph /  11.3 km/h 78 % 0.00 in /  0 mm 0 W/m2
22:55 45.9 °F /  7.7 °C 39.7 °F /  4.3 °C 30.33 in /  1027 hPa NW 4.0 mph /  6.4 km/h 9.0 mph /  14.5 km/h 79 % 0.00 in /  0 mm 0 W/m2
23:00 45.9 °F /  7.7 °C 39.7 °F /  4.3 °C 30.33 in /  1027 hPa NNW 5.0 mph /  8 km/h 11.0 mph /  17.7 km/h 79 % 0.00 in /  0 mm 0 W/m2
23:05 45.9 °F /  7.7 °C 39.7 °F /  4.3 °C 30.33 in /  1027 hPa NNW 6.0 mph /  9.7 km/h 11.0 mph /  17.7 km/h 79 % 0.00 in /  0 mm 0 W/m2
23:10 45.7 °F /  7.6 °C 39.9 °F /  4.4 °C 30.34 in /  1027.3 hPa NNW 6.0 mph /  9.7 km/h 10.0 mph /  16.1 km/h 80 % 0.00 in /  0 mm 0 W/m2
23:16 45.7 °F /  7.6 °C 39.9 °F /  4.4 °C 30.34 in /  1027.3 hPa North 6.0 mph /  9.7 km/h 10.0 mph /  16.1 km/h 80 % 0.00 in /  0 mm 0 W/m2
23:21 45.7 °F /  7.6 °C 39.9 °F /  4.4 °C 30.34 in /  1027.3 hPa North 5.0 mph /  8 km/h 10.0 mph /  16.1 km/h 80 % 0.00 in /  0 mm 0 W/m2
23:26 45.5 °F /  7.5 °C 39.7 °F /  4.3 °C 30.34 in /  1027.3 hPa North 4.0 mph /  6.4 km/h 10.0 mph /  16.1 km/h 80 % 0.00 in /  0 mm 0 W/m2
23:31 45.5 °F /  7.5 °C 39.4 °F /  4.1 °C 30.35 in /  1027.7 hPa North 6.0 mph /  9.7 km/h 19.0 mph /  30.6 km/h 79 % 0.00 in /  0 mm 0 W/m2
23:36 45.1 °F /  7.3 °C 38.7 °F /  3.7 °C 30.35 in /  1027.7 hPa North 10.0 mph /  16.1 km/h 22.0 mph /  35.4 km/h 78 % 0.00 in /  0 mm 0 W/m2
23:41 44.6 °F /  7 °C 38.5 °F /  3.6 °C 30.36 in /  1028 hPa North 11.0 mph /  17.7 km/h 22.0 mph /  35.4 km/h 79 % 0.00 in /  0 mm 0 W/m2
23:46 44.2 °F /  6.8 °C 38.8 °F /  3.8 °C 30.36 in /  1028 hPa North 10.0 mph /  16.1 km/h 20.0 mph /  32.2 km/h 81 % 0.00 in /  0 mm 0 W/m2
23:51 44.1 °F /  6.7 °C 38.6 °F /  3.7 °C 30.36 in /  1028 hPa North 8.0 mph /  12.9 km/h 18.0 mph /  29 km/h 81 % 0.00 in /  0 mm 0 W/m2
23:56 43.9 °F /  6.6 °C 38.7 °F /  3.7 °C 30.36 in /  1028 hPa North 8.0 mph /  12.9 km/h 16.0 mph /  25.7 km/h 82 % 0.00 in /  0 mm 0 W/m2
Delerius-Weather
Compliments of Weather Underground - 2.25 mb

Data updates at regular intervals.